Time;durP1;ratioP1;P1;durP2;ratioP2;P2;SDS_P1;SDS_P2;PMS_P1;PMS_P2;Temp;Humidity;BMP_temperature;BMP_pressure;BME280_temperature;BME280_humidity;BME280_pressure;Samples;Min_cycle;Max_cycle;Signal;HPM_P1;HPM_P2
2022/02/26 00:00:06;;;;;;;9.63;3.87;;;8.60;76.50;;;;;;5087330;28;20601;-47
2022/02/26 00:02:34;;;;;;;7.47;3.60;;;8.60;77.50;;;;;;5088468;28;20204;-50
2022/02/26 00:05:01;;;;;;;5.40;3.10;;;8.60;76.90;;;;;;5076799;28;20186;-44
2022/02/26 00:07:29;;;;;;;5.13;2.80;;;8.60;76.90;;;;;;5086271;28;20660;-49
2022/02/26 00:09:56;;;;;;;4.10;2.50;;;8.60;77.00;;;;;;5091333;28;20194;-48
2022/02/26 00:12:23;;;;;;;3.60;2.27;;;8.60;77.10;;;;;;5084401;28;20199;-49
2022/02/26 00:14:50;;;;;;;5.07;2.47;;;8.60;77.20;;;;;;5092176;28;20244;-52
2022/02/26 00:17:18;;;;;;;4.87;1.93;;;8.50;77.30;;;;;;5089273;28;20708;-50
2022/02/26 00:19:46;;;;;;;4.03;2.07;;;8.60;77.50;;;;;;5082833;28;20228;-52
2022/02/26 00:22:13;;;;;;;5.97;2.03;;;8.60;77.70;;;;;;5087620;28;20200;-51
2022/02/26 00:24:40;;;;;;;4.30;2.50;;;8.60;78.40;;;;;;5070147;28;20206;-44
2022/02/26 00:27:07;;;;;;;6.63;2.77;;;8.50;77.80;;;;;;5084030;28;20217;-49
2022/02/26 00:29:35;;;;;;;6.40;2.80;;;8.50;78.00;;;;;;5058150;28;20795;-50
2022/02/26 00:32:02;;;;;;;5.20;2.43;;;8.50;78.10;;;;;;5072763;28;20191;-48
2022/02/26 00:34:31;;;;;;;7.70;3.03;;;8.40;78.20;;;;;;5074288;28;20583;-48
2022/02/26 00:36:59;;;;;;;7.83;3.30;;;8.40;78.50;;;;;;5076532;28;20195;-48
2022/02/26 00:39:26;;;;;;;4.27;2.63;;;8.40;78.80;;;;;;5081729;28;20194;-49
2022/02/26 00:41:53;;;;;;;5.50;3.10;;;8.30;78.90;;;;;;5079629;28;20772;-51
2022/02/26 00:44:20;;;;;;;5.10;3.40;;;8.30;79.10;;;;;;5081993;28;20206;-48
2022/02/26 00:46:47;;;;;;;7.87;3.50;;;8.30;79.20;;;;;;5072868;28;20251;-48
2022/02/26 00:51:57;;;;;;;9.00;3.30;;;8.30;79.30;;;;;;5069425;28;20212;-46
2022/02/26 00:54:24;;;;;;;4.10;2.70;;;8.30;79.50;;;;;;5082273;28;20558;-52
2022/02/26 00:56:52;;;;;;;4.70;2.63;;;8.30;79.60;;;;;;5076296;28;20264;-49
2022/02/26 00:59:19;;;;;;;6.47;3.07;;;8.20;79.70;;;;;;5056490;28;20612;-47
2022/02/26 01:01:47;;;;;;;8.67;2.97;;;8.20;80.00;;;;;;5079566;28;20216;-46
2022/02/26 01:04:14;;;;;;;6.90;3.10;;;8.20;80.20;;;;;;5089148;28;20228;-48
2022/02/26 01:06:41;;;;;;;6.03;2.60;;;8.30;80.30;;;;;;5080352;28;20190;-50
2022/02/26 01:09:10;;;;;;;6.37;2.97;;;8.30;80.30;;;;;;5052542;28;20574;-50
2022/02/26 01:11:37;;;;;;;5.00;2.40;;;8.30;80.40;;;;;;5086733;28;20250;-51
2022/02/26 01:14:05;;;;;;;2.70;2.30;;;8.30;80.60;;;;;;5082879;28;20215;-50
2022/02/26 01:16:32;;;;;;;2.37;1.73;;;8.40;80.60;;;;;;5078364;28;20198;-47
2022/02/26 01:18:59;;;;;;;7.37;2.83;;;8.40;80.70;;;;;;5073802;28;20247;-50
2022/02/26 01:21:27;;;;;;;8.60;3.77;;;8.40;80.80;;;;;;5088838;28;20200;-48
2022/02/26 01:23:54;;;;;;;8.57;4.13;;;8.40;81.00;;;;;;5085638;28;20245;-52
2022/02/26 01:26:23;;;;;;;11.73;4.37;;;8.40;81.10;;;;;;5088528;28;20205;-52
2022/02/26 01:28:50;;;;;;;10.33;4.33;;;8.50;81.30;;;;;;5085431;28;20219;-50
2022/02/26 01:31:17;;;;;;;6.93;3.97;;;8.50;81.30;;;;;;5089087;28;20197;-50
2022/02/26 01:33:45;;;;;;;6.47;3.30;;;8.50;81.20;;;;;;5087968;28;20193;-50
2022/02/26 01:36:12;;;;;;;6.87;3.47;;;8.50;81.30;;;;;;5085476;28;20202;-50
2022/02/26 01:38:41;;;;;;;5.93;3.43;;;8.50;81.40;;;;;;5082021;28;20620;-52
2022/02/26 01:41:08;;;;;;;5.37;3.47;;;8.50;81.60;;;;;;5083552;28;20246;-53
2022/02/26 01:43:37;;;;;;;5.03;2.80;;;8.50;81.60;;;;;;5086358;28;20216;-52
2022/02/26 01:46:07;;;;;;;5.03;3.00;;;8.50;81.60;;;;;;5083520;28;20185;-53
2022/02/26 01:48:35;;;;;;;4.80;3.07;;;8.50;81.80;;;;;;5085425;28;20565;-45
2022/02/26 01:51:03;;;;;;;4.43;2.73;;;8.40;81.80;;;;;;5080901;28;20335;-45
2022/02/26 01:53:30;;;;;;;4.80;3.00;;;8.40;82.00;;;;;;5082347;28;20193;-45
2022/02/26 01:55:57;;;;;;;6.07;3.17;;;8.30;82.10;;;;;;5062609;28;20225;-45
2022/02/26 01:58:24;;;;;;;7.13;3.10;;;8.30;82.40;;;;;;5081452;28;20555;-43
2022/02/26 02:00:53;;;;;;;5.73;3.10;;;8.20;82.50;;;;;;5082839;28;20196;-47
2022/02/26 02:03:20;;;;;;;6.37;3.17;;;8.30;83.00;;;;;;5087408;28;20237;-46
2022/02/26 02:05:47;;;;;;;5.33;3.43;;;8.10;83.10;;;;;;5080444;28;20599;-49
2022/02/26 02:08:15;;;;;;;6.23;3.00;;;8.00;83.30;;;;;;5082383;28;20193;-42
2022/02/26 02:10:43;;;;;;;4.17;2.73;;;8.00;83.40;;;;;;5069459;28;20239;-46
2022/02/26 02:13:11;;;;;;;5.30;2.93;;;8.00;83.60;;;;;;5066334;28;20295;-50
2022/02/26 02:15:40;;;;;;;6.00;2.90;;;8.00;83.90;;;;;;5089305;28;20220;-45
2022/02/26 02:18:12;;;;;;;4.03;2.60;;;8.00;84.20;;;;;;5067290;28;20252;-49
2022/02/26 02:20:40;;;;;;;4.60;2.53;;;8.00;84.30;;;;;;5086115;28;20196;-46
2022/02/26 02:23:09;;;;;;;3.83;2.50;;;8.00;84.90;;;;;;5084516;28;20238;-46
2022/02/26 02:25:38;;;;;;;3.40;2.40;;;8.00;84.30;;;;;;5081852;28;20320;-42
2022/02/26 02:28:07;;;;;;;4.43;2.27;;;8.00;84.40;;;;;;5078826;28;20192;-44
2022/02/26 02:30:34;;;;;;;3.63;2.40;;;8.00;84.50;;;;;;5086001;28;20534;-45
2022/02/26 02:33:02;;;;;;;3.27;2.10;;;7.90;84.60;;;;;;5068369;28;20672;-42
2022/02/26 02:35:31;;;;;;;6.87;2.77;;;7.90;84.80;;;;;;5085012;28;20196;-47
2022/02/26 02:38:01;;;;;;;4.83;2.40;;;7.90;85.00;;;;;;5082682;28;20212;-43
2022/02/26 02:40:30;;;;;;;4.10;2.47;;;7.80;85.20;;;;;;5065087;28;20204;-46
2022/02/26 02:42:57;;;;;;;4.33;2.27;;;7.80;85.40;;;;;;5082619;28;20219;-47
2022/02/26 02:45:26;;;;;;;2.73;1.97;;;7.80;85.70;;;;;;5085247;28;20207;-46
2022/02/26 02:47:53;;;;;;;3.03;1.80;;;7.80;85.90;;;;;;5076659;28;20227;-46
2022/02/26 02:50:20;;;;;;;3.63;2.13;;;7.70;86.00;;;;;;5078741;28;20382;-47
2022/02/26 02:52:48;;;;;;;3.13;2.07;;;7.70;86.10;;;;;;5080045;28;20908;-44
2022/02/26 02:55:16;;;;;;;1.50;1.37;;;7.80;86.40;;;;;;5077128;28;20215;-44
2022/02/26 02:57:46;;;;;;;2.27;1.53;;;7.80;86.30;;;;;;5060524;28;20200;-46
2022/02/26 03:00:15;;;;;;;2.83;1.90;;;7.70;86.40;;;;;;5064589;28;20661;-45
2022/02/26 03:02:42;;;;;;;2.30;1.80;;;7.60;86.60;;;;;;5075404;28;20669;-47
2022/02/26 03:05:10;;;;;;;1.90;1.80;;;7.60;87.00;;;;;;5077335;28;20271;-47
2022/02/26 03:07:38;;;;;;;2.80;1.70;;;7.60;87.10;;;;;;5085643;28;20577;-44
2022/02/26 03:10:07;;;;;;;2.87;1.67;;;7.50;87.30;;;;;;5074790;28;20199;-48
2022/02/26 03:12:34;;;;;;;3.10;1.83;;;7.60;87.70;;;;;;5085504;28;20200;-46
2022/02/26 03:15:03;;;;;;;2.73;1.73;;;7.50;87.70;;;;;;5087760;28;20212;-45
2022/02/26 03:17:31;;;;;;;5.33;1.90;;;7.50;87.80;;;;;;5081356;28;20267;-44
2022/02/26 03:19:58;;;;;;;2.93;1.90;;;7.60;88.10;;;;;;5075287;28;20197;-44
2022/02/26 03:22:25;;;;;;;3.13;1.73;;;7.50;88.20;;;;;;5069659;28;20624;-49
2022/02/26 03:24:52;;;;;;;2.30;1.77;;;7.60;88.30;;;;;;5085818;28;20298;-48
2022/02/26 03:27:20;;;;;;;2.50;1.67;;;7.50;88.20;;;;;;5071804;28;20189;-47
2022/02/26 03:29:47;;;;;;;2.20;2.00;;;7.50;88.40;;;;;;5073074;28;20197;-46
2022/02/26 03:32:16;;;;;;;2.77;1.90;;;7.50;88.60;;;;;;5079258;28;20189;-44
2022/02/26 03:34:43;;;;;;;3.70;1.70;;;7.50;88.80;;;;;;5068990;28;20240;-49
2022/02/26 03:37:11;;;;;;;2.03;1.70;;;7.60;89.00;;;;;;5077177;28;20242;-47
2022/02/26 03:39:39;;;;;;;3.57;1.93;;;7.60;89.00;;;;;;5089219;28;20245;-45
2022/02/26 03:42:08;;;;;;;2.43;1.50;;;7.60;89.00;;;;;;5084061;28;20197;-47
2022/02/26 03:44:36;;;;;;;2.30;1.40;;;7.60;89.10;;;;;;5087771;28;20198;-48
2022/02/26 03:47:04;;;;;;;4.70;1.80;;;7.50;89.20;;;;;;5077121;28;20596;-47
2022/02/26 03:49:33;;;;;;;2.33;1.93;;;7.60;89.30;;;;;;5090456;28;20611;-48
2022/02/26 03:52:00;;;;;;;3.27;1.60;;;7.50;89.30;;;;;;5074064;28;20677;-49
2022/02/26 03:54:28;;;;;;;2.20;1.80;;;7.50;89.40;;;;;;5081273;28;20211;-48
2022/02/26 03:56:55;;;;;;;2.63;1.50;;;7.60;89.60;;;;;;5085638;28;20196;-51
2022/02/26 03:59:22;;;;;;;3.37;1.80;;;7.60;89.70;;;;;;5073439;28;20570;-48
2022/02/26 04:01:49;;;;;;;3.87;2.00;;;7.60;89.80;;;;;;5092458;28;20192;-45
2022/02/26 04:04:16;;;;;;;5.03;2.40;;;7.60;89.90;;;;;;5090341;28;20228;-47
2022/02/26 04:06:45;;;;;;;3.47;2.10;;;7.70;89.90;;;;;;5082808;28;20189;-47
2022/02/26 04:09:12;;;;;;;3.33;2.20;;;7.70;89.90;;;;;;5086993;28;20193;-47
2022/02/26 04:11:40;;;;;;;3.73;2.50;;;7.70;89.80;;;;;;5065411;28;20576;-46
2022/02/26 04:14:07;;;;;;;3.40;2.13;;;7.70;89.80;;;;;;5089183;28;20264;-48
2022/02/26 04:16:34;;;;;;;5.50;2.43;;;7.70;89.90;;;;;;5063792;28;20601;-46
2022/02/26 04:19:02;;;;;;;4.63;1.90;;;7.70;90.00;;;;;;5091633;28;20462;-48
2022/02/26 04:21:30;;;;;;;4.27;2.30;;;7.70;89.90;;;;;;5088112;28;20283;-46
2022/02/26 04:23:59;;;;;;;8.40;3.47;;;7.70;90.00;;;;;;5079105;28;20180;-46
2022/02/26 04:26:26;;;;;;;6.80;3.37;;;7.80;90.00;;;;;;5077857;28;20192;-48
2022/02/26 04:28:56;;;;;;;8.20;4.00;;;7.70;89.90;;;;;;5082776;28;20192;-46
2022/02/26 04:31:24;;;;;;;8.33;3.77;;;7.70;89.90;;;;;;5085788;28;20204;-44
2022/02/26 04:33:51;;;;;;;7.97;3.80;;;7.70;89.90;;;;;;5066637;28;20284;-47
2022/02/26 04:36:18;;;;;;;6.63;3.40;;;7.60;89.90;;;;;;5087643;28;20209;-46
2022/02/26 04:38:46;;;;;;;4.73;2.80;;;7.60;90.00;;;;;;5074933;28;20196;-46
2022/02/26 04:41:15;;;;;;;4.47;2.90;;;7.50;90.10;;;;;;5088433;28;20192;-45
2022/02/26 04:43:44;;;;;;;4.10;2.50;;;7.50;90.20;;;;;;5080885;28;20199;-48
2022/02/26 04:46:11;;;;;;;4.43;2.53;;;7.50;90.20;;;;;;5086861;28;20672;-48
2022/02/26 04:48:39;;;;;;;5.10;2.60;;;7.40;90.20;;;;;;5084315;28;20196;-45
2022/02/26 04:51:08;;;;;;;6.53;2.70;;;7.40;90.30;;;;;;5084363;28;20197;-45
2022/02/26 04:53:36;;;;;;;3.17;2.60;;;7.40;90.30;;;;;;5081247;28;20724;-44
2022/02/26 04:56:04;;;;;;;7.40;3.73;;;7.40;90.40;;;;;;5086261;28;20216;-45
2022/02/26 04:58:34;;;;;;;6.57;3.27;;;7.50;90.50;;;;;;5082207;28;20201;-45
2022/02/26 05:01:02;;;;;;;5.10;3.43;;;7.50;90.40;;;;;;5087645;28;20288;-49
2022/02/26 05:03:29;;;;;;;12.63;5.13;;;7.50;90.30;;;;;;5088419;28;20236;-44
2022/02/26 05:05:56;;;;;;;6.60;4.67;;;7.50;90.30;;;;;;5081493;28;20268;-45
2022/02/26 05:08:23;;;;;;;10.37;4.67;;;7.40;90.40;;;;;;5067052;28;20549;-48
2022/02/26 05:10:52;;;;;;;6.97;4.20;;;7.40;90.50;;;;;;5084283;28;20719;-46
2022/02/26 05:13:19;;;;;;;10.30;4.83;;;7.40;90.60;;;;;;5070379;28;20656;-48
2022/02/26 05:15:48;;;;;;;7.07;4.53;;;7.50;90.60;;;;;;5087532;28;20757;-49
2022/02/26 05:18:15;;;;;;;7.30;4.27;;;7.50;90.60;;;;;;5088514;28;20189;-47
2022/02/26 05:20:42;;;;;;;8.60;4.50;;;7.40;90.60;;;;;;5086078;28;20193;-44
2022/02/26 05:23:09;;;;;;;6.73;4.10;;;7.40;90.60;;;;;;5081301;28;20200;-48
2022/02/26 05:25:37;;;;;;;4.93;3.63;;;7.40;90.70;;;;;;5085280;28;20204;-50
2022/02/26 05:28:04;;;;;;;5.27;3.73;;;7.40;90.70;;;;;;5087827;28;20645;-46
2022/02/26 05:30:32;;;;;;;4.63;3.47;;;7.40;90.70;;;;;;5085837;28;20201;-45
2022/02/26 05:33:00;;;;;;;5.37;3.40;;;7.40;90.70;;;;;;5079125;28;20207;-47
2022/02/26 05:35:29;;;;;;;6.03;2.93;;;7.50;90.70;;;;;;5091290;28;20196;-45
2022/02/26 05:37:57;;;;;;;5.77;3.57;;;7.40;90.70;;;;;;5084856;28;20218;-46
2022/02/26 05:40:25;;;;;;;6.07;3.17;;;7.40;90.70;;;;;;5085999;28;20200;-49
2022/02/26 05:42:52;;;;;;;5.97;3.60;;;7.40;90.70;;;;;;5086104;28;20253;-45
2022/02/26 05:45:20;;;;;;;17.17;6.43;;;7.40;90.80;;;;;;5087474;28;20192;-47
2022/02/26 05:47:47;;;;;;;9.10;5.87;;;7.40;90.90;;;;;;5087797;28;20220;-47
2022/02/26 05:50:17;;;;;;;10.97;5.47;;;7.50;91.00;;;;;;5086985;28;20310;-46
2022/02/26 05:52:44;;;;;;;9.23;4.90;;;7.40;91.00;;;;;;5079392;28;20627;-49
2022/02/26 05:55:12;;;;;;;10.83;4.80;;;7.50;91.00;;;;;;5085608;28;20208;-45
2022/02/26 05:57:39;;;;;;;7.87;4.10;;;7.50;90.90;;;;;;5080322;28;20197;-44
2022/02/26 06:00:07;;;;;;;7.37;4.57;;;7.50;90.90;;;;;;5085443;28;20215;-47
2022/02/26 06:02:34;;;;;;;6.93;3.77;;;7.50;90.90;;;;;;5078847;28;20201;-47
2022/02/26 06:05:01;;;;;;;5.93;3.97;;;7.50;91.00;;;;;;5081302;28;20592;-47
2022/02/26 06:07:31;;;;;;;9.73;5.60;;;7.60;91.10;;;;;;5087744;28;20208;-45
2022/02/26 06:09:59;;;;;;;11.67;6.30;;;7.60;91.40;;;;;;5087098;28;20672;-45
2022/02/26 06:12:26;;;;;;;14.60;6.40;;;7.60;91.10;;;;;;5085375;28;20192;-44
2022/02/26 06:14:53;;;;;;;7.43;4.67;;;7.60;91.10;;;;;;5088374;28;20200;-47
2022/02/26 06:17:21;;;;;;;8.13;4.10;;;7.70;91.10;;;;;;5082828;28;20689;-46
2022/02/26 06:19:48;;;;;;;9.03;4.60;;;7.70;91.10;;;;;;5084778;28;20199;-43
2022/02/26 06:22:15;;;;;;;6.73;3.80;;;7.70;91.00;;;;;;5070031;28;20232;-45
2022/02/26 06:24:44;;;;;;;11.90;5.00;;;7.70;91.10;;;;;;5065274;28;20204;-48
2022/02/26 06:27:11;;;;;;;10.20;5.10;;;7.70;91.20;;;;;;5086127;28;20668;-46
2022/02/26 06:29:38;;;;;;;7.17;4.20;;;7.70;91.20;;;;;;5085451;28;20706;-47
2022/02/26 06:32:07;;;;;;;10.50;6.20;;;7.70;91.20;;;;;;5079421;28;20276;-45
2022/02/26 06:34:34;;;;;;;18.67;7.10;;;7.70;91.30;;;;;;5089026;28;20196;-47
2022/02/26 06:37:01;;;;;;;8.83;5.60;;;7.70;91.40;;;;;;5084328;28;20692;-49
2022/02/26 06:39:28;;;;;;;9.93;5.37;;;7.70;91.40;;;;;;5083028;28;20196;-47
2022/02/26 06:41:56;;;;;;;8.90;4.60;;;7.80;91.50;;;;;;5083992;28;20193;-45
2022/02/26 06:44:24;;;;;;;7.20;4.30;;;7.70;91.50;;;;;;5061155;28;20201;-50
2022/02/26 06:46:51;;;;;;;7.17;4.03;;;7.80;91.50;;;;;;5081811;28;20188;-45
2022/02/26 06:49:18;;;;;;;8.00;4.40;;;7.80;91.60;;;;;;5081349;28;20662;-50
2022/02/26 06:51:46;;;;;;;5.90;3.60;;;7.80;91.60;;;;;;5082398;28;20588;-49
2022/02/26 06:54:13;;;;;;;6.37;4.17;;;7.80;91.70;;;;;;5083518;28;20692;-48
2022/02/26 06:56:41;;;;;;;6.57;4.13;;;7.80;91.80;;;;;;5082675;28;20201;-49
2022/02/26 06:59:10;;;;;;;6.07;3.77;;;7.90;91.90;;;;;;5059528;28;20209;-47
2022/02/26 07:01:37;;;;;;;4.77;3.47;;;7.90;91.90;;;;;;5079867;28;20228;-46
2022/02/26 07:04:04;;;;;;;6.47;3.70;;;8.00;92.10;;;;;;5080261;28;20229;-50
2022/02/26 07:06:31;;;;;;;3.90;2.87;;;8.10;92.20;;;;;;5078456;28;20227;-50
2022/02/26 07:08:58;;;;;;;4.30;2.70;;;8.10;92.20;;;;;;5076034;28;20197;-46
2022/02/26 07:11:25;;;;;;;3.27;2.60;;;8.10;92.20;;;;;;5086698;28;20200;-46
2022/02/26 07:13:52;;;;;;;2.63;2.40;;;8.20;92.40;;;;;;5086943;28;20204;-47
2022/02/26 07:16:21;;;;;;;1.90;1.80;;;8.30;92.60;;;;;;5070450;28;20290;-52
2022/02/26 07:18:48;;;;;;;3.03;2.30;;;8.20;92.60;;;;;;5087573;28;20190;-49
2022/02/26 07:21:15;;;;;;;5.10;2.90;;;8.30;92.80;;;;;;5083337;28;20196;-49
2022/02/26 07:23:42;;;;;;;6.90;2.93;;;8.30;93.10;;;;;;5080661;28;20275;-51
2022/02/26 07:26:10;;;;;;;2.80;2.50;;;8.40;93.60;;;;;;5083325;28;20602;-47
2022/02/26 07:28:37;;;;;;;2.90;2.17;;;8.40;93.30;;;;;;5077959;28;20668;-44
2022/02/26 07:31:04;;;;;;;1.60;1.50;;;8.50;93.40;;;;;;5087511;28;20288;-47
2022/02/26 07:33:32;;;;;;;2.20;1.87;;;8.60;93.40;;;;;;5054022;28;20201;-47
2022/02/26 07:35:59;;;;;;;1.93;1.73;;;8.60;93.40;;;;;;5074808;28;20241;-49
2022/02/26 07:38:26;;;;;;;1.70;1.60;;;8.70;93.40;;;;;;5069399;28;20226;-48
2022/02/26 07:40:54;;;;;;;2.20;1.40;;;8.70;93.30;;;;;;5063387;28;20217;-48
2022/02/26 07:43:21;;;;;;;1.67;1.47;;;8.70;93.40;;;;;;5078717;28;20609;-45
2022/02/26 07:45:48;;;;;;;3.10;2.27;;;8.80;93.40;;;;;;5079923;28;20211;-46
2022/02/26 07:48:16;;;;;;;3.17;2.07;;;8.80;93.40;;;;;;5084485;28;20249;-48
2022/02/26 07:50:45;;;;;;;6.27;2.67;;;8.80;93.40;;;;;;5060580;28;20213;-50
2022/02/26 07:53:12;;;;;;;5.60;2.73;;;8.80;93.50;;;;;;5080360;28;20193;-51
2022/02/26 07:55:40;;;;;;;5.47;2.70;;;8.80;93.50;;;;;;5068744;28;20232;-49
2022/02/26 07:58:07;;;;;;;3.70;2.40;;;8.90;93.60;;;;;;5082228;28;20313;-50
2022/02/26 08:00:35;;;;;;;2.17;1.80;;;8.90;93.60;;;;;;5085532;28;20211;-48
2022/02/26 08:03:02;;;;;;;3.63;2.87;;;9.00;93.90;;;;;;5058714;28;20234;-48
2022/02/26 08:05:29;;;;;;;5.00;2.63;;;9.00;93.70;;;;;;5062870;28;20205;-48
2022/02/26 08:07:58;;;;;;;6.00;3.57;;;9.00;93.80;;;;;;5055106;28;20662;-46
2022/02/26 08:10:26;;;;;;;6.13;3.20;;;9.10;94.00;;;;;;5068498;28;20193;-48
2022/02/26 08:12:54;;;;;;;4.70;2.63;;;9.10;93.90;;;;;;5058129;28;20662;-48
2022/02/26 08:15:23;;;;;;;3.37;2.27;;;9.20;94.20;;;;;;5067091;28;20211;-46
2022/02/26 08:17:50;;;;;;;6.10;2.77;;;9.20;94.20;;;;;;5066516;28;20201;-48
2022/02/26 08:20:20;;;;;;;4.73;2.83;;;9.20;94.20;;;;;;5065447;28;20198;-50
2022/02/26 08:22:47;;;;;;;6.17;3.40;;;9.30;94.20;;;;;;5060661;28;20603;-48
2022/02/26 08:25:17;;;;;;;5.30;3.23;;;9.30;94.30;;;;;;5069428;28;20199;-49
2022/02/26 08:27:44;;;;;;;3.60;2.70;;;9.40;94.40;;;;;;5069018;28;20199;-49
2022/02/26 08:30:13;;;;;;;4.83;2.47;;;9.40;94.40;;;;;;5062552;28;20604;-48
2022/02/26 08:32:41;;;;;;;3.40;2.33;;;9.40;94.30;;;;;;5065210;28;20202;-47
2022/02/26 08:35:09;;;;;;;3.63;2.27;;;9.50;94.40;;;;;;5071216;28;20202;-46
2022/02/26 08:37:36;;;;;;;4.00;2.73;;;9.60;94.40;;;;;;5066167;28;20211;-46
2022/02/26 08:40:06;;;;;;;4.73;2.43;;;9.60;94.40;;;;;;5072273;28;20228;-48
2022/02/26 08:42:34;;;;;;;4.57;3.00;;;9.70;94.40;;;;;;5068332;28;20273;-49
2022/02/26 08:45:02;;;;;;;4.13;2.70;;;9.70;94.30;;;;;;5063496;28;20204;-50
2022/02/26 08:47:30;;;;;;;5.37;2.77;;;9.70;94.30;;;;;;5064729;28;21210;-43
2022/02/26 08:49:58;;;;;;;6.20;2.97;;;9.80;94.30;;;;;;5066406;28;20204;-42
2022/02/26 08:52:25;;;;;;;5.17;2.93;;;9.90;94.30;;;;;;5062641;28;20207;-43
2022/02/26 08:54:52;;;;;;;5.67;2.73;;;10.00;93.80;;;;;;5062077;28;20224;-44
2022/02/26 08:57:20;;;;;;;2.63;2.27;;;10.00;93.70;;;;;;5057172;28;20267;-44
2022/02/26 08:59:49;;;;;;;3.67;2.70;;;10.10;93.70;;;;;;5067008;28;20203;-43
2022/02/26 09:02:16;;;;;;;5.83;2.90;;;10.10;93.70;;;;;;5069745;28;20257;-46
2022/02/26 09:04:43;;;;;;;4.63;3.37;;;10.10;93.70;;;;;;5087732;28;20232;-45
2022/02/26 09:07:11;;;;;;;3.10;2.80;;;10.10;93.70;;;;;;5078226;28;20223;-48
2022/02/26 09:09:39;;;;;;;5.27;3.27;;;10.10;93.70;;;;;;5066799;28;20209;-46
2022/02/26 09:12:07;;;;;;;6.33;3.43;;;10.10;93.70;;;;;;5083088;28;20561;-44
2022/02/26 09:14:34;;;;;;;8.03;3.37;;;10.10;93.70;;;;;;5083591;28;20205;-46
2022/02/26 09:17:03;;;;;;;4.57;3.10;;;10.10;93.70;;;;;;5071300;28;20296;-46
2022/02/26 09:19:31;;;;;;;5.77;2.80;;;10.10;93.80;;;;;;5087501;28;20287;-43
2022/02/26 09:21:58;;;;;;;3.17;2.77;;;10.10;93.70;;;;;;5077647;28;20199;-44
2022/02/26 09:24:25;;;;;;;7.93;3.30;;;10.10;93.70;;;;;;5077791;28;20617;-45
2022/02/26 09:26:52;;;;;;;3.90;2.87;;;10.20;93.80;;;;;;5079009;28;20196;-50
2022/02/26 09:29:20;;;;;;;4.47;2.30;;;10.30;93.80;;;;;;5076415;28;20200;-46
2022/02/26 09:31:50;;;;;;;4.20;2.90;;;10.40;93.70;;;;;;5077832;28;20298;-51
2022/02/26 09:34:19;;;;;;;5.67;2.70;;;10.50;93.60;;;;;;5083478;28;20205;-52
2022/02/26 09:36:46;;;;;;;3.70;3.27;;;10.60;93.50;;;;;;5086166;28;20202;-45
2022/02/26 09:39:14;;;;;;;5.60;3.70;;;10.60;93.30;;;;;;5083162;28;20279;-42
2022/02/26 09:41:43;;;;;;;5.93;2.80;;;10.60;93.30;;;;;;5088083;28;20192;-43
2022/02/26 09:44:10;;;;;;;5.20;2.70;;;10.50;93.30;;;;;;5086710;28;20587;-45
2022/02/26 09:46:37;;;;;;;5.77;3.57;;;10.60;93.60;;;;;;5083396;28;20199;-45
2022/02/26 09:49:05;;;;;;;5.13;2.73;;;10.60;93.30;;;;;;5065684;28;20631;-44
2022/02/26 09:51:35;;;;;;;4.13;3.07;;;10.60;93.30;;;;;;5083457;28;20284;-43
2022/02/26 09:54:02;;;;;;;5.83;3.50;;;10.70;93.40;;;;;;5080396;28;20192;-45
2022/02/26 09:56:29;;;;;;;6.07;3.10;;;10.70;93.40;;;;;;5085521;28;20586;-45
2022/02/26 09:58:56;;;;;;;3.30;2.93;;;10.70;93.40;;;;;;5085611;28;20199;-45
2022/02/26 10:01:23;;;;;;;3.33;2.40;;;10.70;93.40;;;;;;5090726;28;20215;-49
2022/02/26 10:03:51;;;;;;;4.77;2.87;;;10.70;93.50;;;;;;5089090;28;20240;-57
2022/02/26 10:06:19;;;;;;;3.80;2.60;;;10.80;93.40;;;;;;5087961;28;20219;-52
2022/02/26 10:08:50;;;;;;;7.70;2.80;;;10.80;93.40;;;;;;5069844;28;20750;-53
2022/02/26 10:11:26;;;;;;;2.43;2.23;;;10.80;93.40;;;;;;5081153;28;20194;-51
2022/02/26 10:13:59;;;;;;;5.40;2.40;;;10.90;93.30;;;;;;5084035;28;20204;-52
2022/02/26 10:16:48;;;;;;;6.70;3.27;;;11.00;93.30;;;;;;5081947;28;20666;-50
2022/02/26 10:19:26;;;;;;;3.93;2.33;;;11.00;93.30;;;;;;5084415;28;20225;-52
2022/02/26 10:21:57;;;;;;;12.20;3.30;;;10.90;93.30;;;;;;5081122;28;20188;-48
2022/02/26 10:24:26;;;;;;;3.53;2.40;;;10.90;93.40;;;;;;5078224;28;20286;-52
2022/02/26 10:26:54;;;;;;;3.23;2.33;;;11.00;93.40;;;;;;5085826;28;20300;-48
2022/02/26 10:29:23;;;;;;;5.37;2.30;;;10.90;93.40;;;;;;5085927;28;20361;-49
2022/02/26 10:31:54;;;;;;;6.87;2.63;;;11.00;93.60;;;;;;5083168;28;21421;-48
2022/02/26 10:34:26;;;;;;;4.57;2.30;;;10.90;93.60;;;;;;5082496;28;20193;-48
2022/02/26 10:36:58;;;;;;;2.17;1.87;;;10.90;93.60;;;;;;5072333;28;20216;-52
2022/02/26 10:39:31;;;;;;;5.33;2.10;;;10.90;93.60;;;;;;5069950;28;20677;-48
2022/02/26 10:41:59;;;;;;;4.40;2.17;;;11.00;93.70;;;;;;5080640;28;20192;-49
2022/02/26 10:44:27;;;;;;;2.63;2.20;;;11.00;93.70;;;;;;5071342;28;20230;-50
2022/02/26 10:47:04;;;;;;;6.00;2.40;;;11.10;93.70;;;;;;5072035;28;20197;-50
2022/02/26 10:49:31;;;;;;;3.67;2.03;;;11.10;93.60;;;;;;5053087;28;20256;-52
2022/02/26 10:52:05;;;;;;;2.30;1.93;;;11.10;93.60;;;;;;5071155;28;20202;-49
2022/02/26 10:54:34;;;;;;;6.33;2.50;;;11.10;93.50;;;;;;5070016;28;20200;-51
2022/02/26 10:57:04;;;;;;;3.67;1.97;;;11.10;93.50;;;;;;5071745;28;20220;-49
2022/02/26 10:59:33;;;;;;;5.97;2.87;;;11.00;93.50;;;;;;5071678;28;20681;-53
2022/02/26 11:02:03;;;;;;;2.63;2.00;;;11.00;93.50;;;;;;5071251;28;20208;-48
2022/02/26 11:04:30;;;;;;;7.77;2.77;;;11.00;93.50;;;;;;5071544;28;20243;-50
2022/02/26 11:06:59;;;;;;;5.90;2.37;;;11.00;93.40;;;;;;5082072;28;20196;-49
2022/02/26 11:09:27;;;;;;;2.10;1.90;;;11.00;93.30;;;;;;5058472;28;20205;-48
2022/02/26 11:11:57;;;;;;;4.73;2.20;;;11.00;93.30;;;;;;5086059;28;20256;-52
2022/02/26 11:14:26;;;;;;;3.80;1.73;;;11.00;93.10;;;;;;5089768;28;20208;-50
2022/02/26 11:16:56;;;;;;;3.97;2.47;;;11.00;93.00;;;;;;5087946;28;20200;-48
2022/02/26 11:19:26;;;;;;;4.87;2.23;;;11.00;93.00;;;;;;5067091;28;20539;-50
2022/02/26 11:21:54;;;;;;;10.20;2.97;;;11.00;92.90;;;;;;5086561;28;20210;-50
2022/02/26 11:24:22;;;;;;;7.40;2.43;;;11.00;93.00;;;;;;5085613;28;20200;-50
2022/02/26 11:26:49;;;;;;;7.30;2.40;;;11.10;93.10;;;;;;5086299;28;20571;-48
2022/02/26 11:29:21;;;;;;;13.17;3.17;;;11.10;93.20;;;;;;5083578;28;20198;-52
2022/02/26 11:31:52;;;;;;;7.40;2.63;;;11.20;93.40;;;;;;5084737;28;20609;-50
2022/02/26 11:34:23;;;;;;;3.97;1.60;;;11.30;93.40;;;;;;5088870;28;20186;-49
2022/02/26 11:36:54;;;;;;;12.37;2.30;;;11.30;93.30;;;;;;5085335;28;20200;-48
2022/02/26 11:39:23;;;;;;;6.97;2.10;;;11.40;93.20;;;;;;5080838;28;20286;-52
2022/02/26 11:41:50;;;;;;;6.93;2.20;;;11.40;93.20;;;;;;5083070;28;20663;-53
2022/02/26 11:44:40;;;;;;;11.83;2.00;;;11.30;93.10;;;;;;5079636;28;20225;-50
2022/02/26 11:47:15;;;;;;;4.83;2.20;;;11.20;93.20;;;;;;5064364;28;20578;-50
2022/02/26 11:49:56;;;;;;;4.10;1.53;;;11.20;93.20;;;;;;5089721;28;20548;-53
2022/02/26 11:52:38;;;;;;;4.37;1.57;;;11.20;93.30;;;;;;5084711;28;20192;-50
2022/02/26 11:55:21;;;;;;;3.43;1.43;;;11.20;93.40;;;;;;5081935;28;20246;-46
2022/02/26 11:57:49;;;;;;;4.03;1.50;;;11.20;93.40;;;;;;5086660;28;20831;-51
2022/02/26 12:00:20;;;;;;;2.83;1.67;;;11.30;93.30;;;;;;5085136;28;20202;-51
2022/02/26 12:03:07;;;;;;;4.80;1.93;;;11.40;93.20;;;;;;5090114;28;20296;-47
2022/02/26 12:05:35;;;;;;;8.20;1.90;;;11.40;93.00;;;;;;5082097;28;20604;-49
2022/02/26 12:08:09;;;;;;;4.67;1.50;;;11.50;92.90;;;;;;5081229;28;20196;-49
2022/02/26 12:10:37;;;;;;;13.80;2.10;;;11.70;92.90;;;;;;5091277;28;20188;-49
2022/02/26 12:13:24;;;;;;;6.53;1.87;;;12.00;92.60;;;;;;5089480;28;20260;-48
2022/02/26 12:16:08;;;;;;;7.37;1.53;;;12.30;91.80;;;;;;5092951;28;20223;-51
2022/02/26 12:18:41;;;;;;;3.53;1.57;;;12.50;91.40;;;;;;5087723;28;20564;-53
2022/02/26 12:21:15;;;;;;;3.93;1.80;;;12.90;90.90;;;;;;5072139;28;20209;-48
2022/02/26 12:23:43;;;;;;;3.73;1.40;;;13.30;90.10;;;;;;5087521;28;20193;-47
2022/02/26 12:26:12;;;;;;;3.27;1.33;;;13.40;89.70;;;;;;5092645;28;20196;-47
2022/02/26 12:28:40;;;;;;;6.63;1.63;;;13.40;87.90;;;;;;5085331;28;20196;-44
2022/02/26 12:31:10;;;;;;;4.43;1.13;;;13.00;87.40;;;;;;5088121;28;20656;-49
2022/02/26 12:33:42;;;;;;;3.30;1.47;;;12.70;88.00;;;;;;5088068;28;20199;-46
2022/02/26 12:36:12;;;;;;;3.10;1.30;;;12.40;88.70;;;;;;5082884;28;20191;-47
2022/02/26 12:38:49;;;;;;;4.27;1.40;;;12.30;89.00;;;;;;5088888;28;20580;-46
2022/02/26 12:41:31;;;;;;;3.37;1.10;;;12.20;89.30;;;;;;5089548;28;20676;-48
2022/02/26 12:43:59;;;;;;;4.07;1.63;;;12.20;89.50;;;;;;5082523;28;20736;-47
2022/02/26 12:46:30;;;;;;;4.80;2.10;;;12.40;89.70;;;;;;5085201;28;20195;-47
2022/02/26 12:49:00;;;;;;;2.90;1.50;;;12.60;89.30;;;;;;5087837;28;20197;-48
2022/02/26 12:51:30;;;;;;;4.07;1.50;;;13.00;88.60;;;;;;5084036;28;20200;-47
2022/02/26 12:53:57;;;;;;;3.83;1.53;;;13.40;87.00;;;;;;5084385;28;20209;-50
2022/02/26 12:56:32;;;;;;;6.70;1.30;;;13.50;85.40;;;;;;5065892;28;20247;-48
2022/02/26 12:59:10;;;;;;;2.67;1.50;;;13.40;85.20;;;;;;5081078;28;20219;-45
2022/02/26 13:01:40;;;;;;;4.90;1.30;;;13.20;85.10;;;;;;5091152;28;20205;-53